createdAt,value
2019-03-25T00:04:07.262Z,0
2019-03-25T00:09:07.564Z,0
2019-03-25T00:13:07.463Z,0
2019-03-25T00:18:07.638Z,0
2019-03-25T00:23:07.538Z,0
2019-03-25T00:28:07.337Z,0
2019-03-25T00:33:07.706Z,0
2019-03-25T00:38:07.452Z,0
2019-03-25T00:43:07.475Z,0
2019-03-25T00:48:07.166Z,0
2019-03-25T00:52:07.455Z,0
2019-03-25T00:57:07.129Z,0
2019-03-25T01:02:07.015Z,0
2019-03-25T01:07:07.046Z,0
2019-03-25T01:12:07.262Z,0
2019-03-25T01:17:06.904Z,0
2019-03-25T01:22:06.589Z,0
2019-03-25T01:26:07.473Z,0
2019-03-25T01:31:07.510Z,0
2019-03-25T01:36:07.127Z,0
2019-03-25T01:41:07.259Z,0
2019-03-25T01:46:07.394Z,0
2019-03-25T01:51:07.101Z,0
2019-03-25T01:56:07.763Z,0
2019-03-25T02:01:07.349Z,0
2019-03-25T02:06:08.803Z,0
2019-03-25T02:10:08.073Z,0
2019-03-25T02:15:09.426Z,0
2019-03-25T02:20:07.255Z,0
2019-03-25T02:25:07.022Z,0
2019-03-25T02:30:09.003Z,0
2019-03-25T02:35:07.537Z,0
2019-03-25T02:40:07.530Z,0
2019-03-25T02:44:06.919Z,0
2019-03-25T02:49:07.208Z,0
2019-03-25T02:54:06.930Z,0
2019-03-25T02:59:06.786Z,0
2019-03-25T03:04:07.248Z,0
2019-03-25T03:09:07.551Z,0
2019-03-25T03:14:07.436Z,0
2019-03-25T03:19:06.992Z,0
2019-03-25T03:23:07.715Z,0
2019-03-25T03:28:07.155Z,0
2019-03-25T03:33:07.263Z,0
2019-03-25T03:38:06.950Z,0
2019-03-25T03:43:07.266Z,0
2019-03-25T03:48:06.379Z,0
2019-03-25T03:53:07.436Z,0
2019-03-25T03:57:07.126Z,0
2019-03-25T04:02:06.559Z,0
2019-03-25T04:07:07.821Z,0
2019-03-25T04:12:06.710Z,0
2019-03-25T04:17:07.018Z,0
2019-03-25T04:22:07.084Z,0
2019-03-25T04:27:06.497Z,0
2019-03-25T04:31:07.571Z,1.67
2019-03-25T04:36:07.004Z,5
2019-03-25T04:41:07.428Z,12.5
2019-03-25T04:46:06.675Z,18.33
2019-03-25T04:51:07.808Z,33.33
2019-03-25T04:56:07.362Z,63.33
2019-03-25T05:01:07.301Z,151.67
2019-03-25T05:06:06.670Z,263.33
2019-03-25T05:10:07.395Z,383.33
2019-03-25T05:15:08.356Z,592.5
2019-03-25T05:20:07.054Z,1098.33
2019-03-25T05:25:09.251Z,1233.33
2019-03-25T05:30:08.149Z,1442.5
2019-03-25T05:35:07.469Z,1724.17
2019-03-25T05:40:07.147Z,1171.67
2019-03-25T05:45:08.886Z,1170.83
2019-03-25T05:49:07.481Z,777.5
2019-03-25T05:54:07.352Z,756.67
2019-03-25T05:59:07.067Z,2019.17
2019-03-25T06:04:06.856Z,733.33
2019-03-25T06:09:07.123Z,320.83
2019-03-25T06:14:06.847Z,305
2019-03-25T06:19:06.460Z,616.67
2019-03-25T06:23:07.307Z,829.17
2019-03-25T06:28:06.707Z,1213.33
2019-03-25T06:33:12.192Z,1775.83
2019-03-25T06:38:06.454Z,1261.67
2019-03-25T06:43:06.714Z,990.83
2019-03-25T06:48:07.159Z,1877.5
2019-03-25T06:53:06.870Z,1430.83
2019-03-25T06:57:06.875Z,1388.33
2019-03-25T07:02:06.747Z,1845
2019-03-25T07:07:06.505Z,970
2019-03-25T07:12:06.670Z,2870
2019-03-25T07:17:07.159Z,2697.5
2019-03-25T07:22:06.932Z,3625.83
2019-03-25T07:27:06.712Z,1749.17
2019-03-25T07:31:07.268Z,3270
2019-03-25T07:36:07.006Z,5245.83
2019-03-25T07:41:07.140Z,4439.17
2019-03-25T07:46:06.661Z,3070.83
2019-03-25T07:51:07.396Z,3469.17
2019-03-25T07:56:07.087Z,2460
2019-03-25T08:00:14.300Z,3840.83
2019-03-25T08:05:07.141Z,16845
2019-03-25T08:10:07.362Z,7863.33
2019-03-25T08:15:08.770Z,11107.5
2019-03-25T08:20:07.356Z,10910
2019-03-25T08:25:07.124Z,29740
2019-03-25T08:30:08.209Z,7689.17
2019-03-25T08:34:07.620Z,7789.17
2019-03-25T08:39:07.606Z,7930.83
2019-03-25T08:44:07.378Z,4213.33
2019-03-25T08:49:07.213Z,6818.33
2019-03-25T08:54:06.941Z,6448.33
2019-03-25T08:59:07.750Z,20811.67
2019-03-25T09:04:07.243Z,18383.33
2019-03-25T09:08:07.091Z,40396.66
2019-03-25T09:13:07.189Z,17240.83
2019-03-25T09:18:06.963Z,10633.33
2019-03-25T09:23:07.884Z,6616.67
2019-03-25T09:28:07.525Z,9305.83
2019-03-25T09:33:07.812Z,14152.5
2019-03-25T09:37:06.848Z,16004.17
2019-03-25T09:42:06.981Z,15765
2019-03-25T09:47:06.510Z,15169.17
2019-03-25T09:52:06.268Z,52905
2019-03-25T09:57:07.039Z,46975
2019-03-25T10:02:07.800Z,18497.5
2019-03-25T10:07:07.631Z,54612.5
2019-03-25T10:12:07.808Z,20847.5
2019-03-25T10:16:06.584Z,12516.67
2019-03-25T10:21:06.380Z,28629.17
2019-03-25T10:26:07.128Z,10998.33
2019-03-25T10:31:06.776Z,16670.83
2019-03-25T10:36:06.457Z,30095
2019-03-25T10:41:06.485Z,50739.16
2019-03-25T10:46:06.995Z,18170
2019-03-25T10:50:07.127Z,21766.67
2019-03-25T10:55:08.368Z,54612.5
2019-03-25T11:00:08.872Z,19994.17
2019-03-25T11:05:07.308Z,29161.67
2019-03-25T11:10:07.474Z,17900.83
2019-03-25T11:15:08.044Z,31069.17
2019-03-25T11:20:07.190Z,54612.5
2019-03-25T11:24:06.561Z,47075
2019-03-25T11:29:08.478Z,50615
2019-03-25T11:34:06.765Z,25518.33
2019-03-25T11:39:06.968Z,27561.67
2019-03-25T11:44:06.813Z,19168.33
2019-03-25T11:49:06.344Z,54612.5
2019-03-25T11:54:07.072Z,16958.33
2019-03-25T11:58:07.272Z,11743.33
2019-03-25T12:03:06.678Z,15886.67
2019-03-25T12:08:06.410Z,37525
2019-03-25T12:13:06.703Z,26805
2019-03-25T12:18:07.041Z,24500.83
2019-03-25T12:23:06.892Z,26311.67
2019-03-25T12:27:07.122Z,43159.16
2019-03-25T12:32:07.925Z,34437.5
2019-03-25T12:37:07.735Z,54612.5
2019-03-25T12:42:07.051Z,54612.5
2019-03-25T12:47:07.420Z,11986.67
2019-03-25T12:52:07.215Z,34497.5
2019-03-25T12:57:06.957Z,54612.5
2019-03-25T13:02:07.036Z,54612.5
2019-03-25T13:06:07.294Z,54612.5
2019-03-25T13:11:07.277Z,27337.5
2019-03-25T13:16:07.437Z,27085
2019-03-25T13:21:07.212Z,46178.33
2019-03-25T13:26:06.931Z,54612.5
2019-03-25T13:31:07.644Z,17064.17
2019-03-25T13:35:06.812Z,5866.67
2019-03-25T13:40:06.882Z,14409.17
2019-03-25T13:45:07.414Z,21905.83
2019-03-25T13:50:07.021Z,5620.83
2019-03-25T13:55:06.493Z,2197.5
2019-03-25T14:00:09.099Z,6009.17
2019-03-25T14:04:06.207Z,13270.83
2019-03-25T14:09:08.099Z,11967.5
2019-03-25T14:14:07.206Z,10218.33
2019-03-25T14:19:07.044Z,3485.83
2019-03-25T14:24:07.162Z,7626.67
2019-03-25T14:29:07.618Z,5514.17
2019-03-25T14:34:06.386Z,2745
2019-03-25T14:38:07.384Z,3195
2019-03-25T14:43:06.648Z,4355.83
2019-03-25T14:48:07.101Z,10888.33
2019-03-25T14:53:06.889Z,7985
2019-03-25T14:58:06.755Z,3819.17
2019-03-25T15:03:06.542Z,5091.67
2019-03-25T15:08:06.930Z,10719.17
2019-03-25T15:13:06.443Z,12868.33
2019-03-25T15:17:06.790Z,11211.67
2019-03-25T15:22:07.393Z,7309.17
2019-03-25T15:27:07.043Z,7350
2019-03-25T15:32:06.808Z,6438.33
2019-03-25T15:37:07.525Z,4829.17
2019-03-25T15:42:06.694Z,5072.5
2019-03-25T15:46:06.473Z,6845.83
2019-03-25T15:51:07.831Z,7121.67
2019-03-25T15:56:07.056Z,8404.17
2019-03-25T16:01:07.464Z,10927.5
2019-03-25T16:06:07.325Z,9932.5
2019-03-25T16:11:07.472Z,12073.33
2019-03-25T16:16:07.045Z,9811.67
2019-03-25T16:21:07.473Z,8220.83
2019-03-25T16:25:06.662Z,7232.5
2019-03-25T16:30:09.010Z,6734.17
2019-03-25T16:35:06.417Z,5616.67
2019-03-25T16:40:06.851Z,4974.17
2019-03-25T16:45:08.096Z,3590
2019-03-25T16:50:06.997Z,3295
2019-03-25T16:54:06.282Z,2940.83
2019-03-25T16:59:07.799Z,1792.5
2019-03-25T17:04:07.246Z,1373.33
2019-03-25T17:09:07.506Z,1055.83
2019-03-25T17:14:07.655Z,835.83
2019-03-25T17:19:07.448Z,649.17
2019-03-25T17:24:07.476Z,484.17
2019-03-25T17:28:06.786Z,340.83
2019-03-25T17:33:07.711Z,214.17
2019-03-25T17:38:07.692Z,120.83
2019-03-25T17:43:07.035Z,60.83
2019-03-25T17:48:06.942Z,27.5
2019-03-25T17:53:06.711Z,11.67
2019-03-25T17:57:07.214Z,4.17
2019-03-25T18:02:07.104Z,1.67
2019-03-25T18:07:07.205Z,0
2019-03-25T18:12:07.774Z,0
2019-03-25T18:17:07.000Z,0
2019-03-25T18:22:07.141Z,0
2019-03-25T18:27:07.480Z,0
2019-03-25T18:32:07.241Z,0
2019-03-25T18:36:07.809Z,0
2019-03-25T18:41:07.185Z,0
2019-03-25T18:46:06.748Z,0
2019-03-25T18:51:07.510Z,0
2019-03-25T18:56:07.373Z,0
2019-03-25T19:01:06.952Z,0
2019-03-25T19:06:07.506Z,0
2019-03-25T19:11:07.079Z,0
2019-03-25T19:15:08.425Z,0
2019-03-25T19:20:06.933Z,0
2019-03-25T19:25:06.381Z,0
2019-03-25T19:30:08.096Z,0
2019-03-25T19:35:06.604Z,0
2019-03-25T19:40:07.618Z,0
2019-03-25T19:45:08.789Z,0
2019-03-25T19:49:07.184Z,0
2019-03-25T19:54:06.962Z,0
2019-03-25T19:59:06.819Z,0
2019-03-25T20:04:06.530Z,0
2019-03-25T20:09:06.648Z,0
2019-03-25T20:14:06.542Z,0
2019-03-25T20:19:07.136Z,0
2019-03-25T20:24:07.084Z,0
2019-03-25T20:28:07.689Z,0
2019-03-25T20:33:07.931Z,0
2019-03-25T20:38:07.735Z,0
2019-03-25T20:43:07.129Z,0
2019-03-25T20:48:07.021Z,0
2019-03-25T20:53:06.978Z,0
2019-03-25T20:58:06.946Z,0
2019-03-25T21:02:07.015Z,0
2019-03-25T21:07:07.940Z,0
2019-03-25T21:12:07.237Z,0
2019-03-25T21:17:07.301Z,0
2019-03-25T21:22:07.270Z,0
2019-03-25T21:27:07.299Z,0
2019-03-25T21:32:07.101Z,0
2019-03-25T21:36:07.542Z,0
2019-03-25T21:41:06.766Z,0
2019-03-25T21:46:07.121Z,0
2019-03-25T21:51:07.014Z,0
2019-03-25T21:56:07.136Z,0
2019-03-25T22:01:07.254Z,0
2019-03-25T22:06:06.922Z,0
2019-03-25T22:10:06.858Z,0
2019-03-25T22:15:07.751Z,0
2019-03-25T22:20:07.187Z,0
2019-03-25T22:25:06.905Z,0
2019-03-25T22:30:07.881Z,0
2019-03-25T22:35:07.331Z,0
2019-03-25T22:40:07.481Z,0
2019-03-25T22:44:06.687Z,0
2019-03-25T22:49:07.047Z,0
2019-03-25T22:54:06.764Z,0
2019-03-25T22:59:06.373Z,0
2019-03-25T23:04:07.397Z,0
2019-03-25T23:09:07.764Z,0
2019-03-25T23:14:07.410Z,0
2019-03-25T23:18:07.234Z,0
2019-03-25T23:23:07.039Z,0
2019-03-25T23:28:07.782Z,0
2019-03-25T23:33:07.057Z,0
2019-03-25T23:38:06.944Z,0
2019-03-25T23:43:07.206Z,0
2019-03-25T23:48:07.734Z,0
2019-03-25T23:53:07.581Z,0
2019-03-25T23:57:07.265Z,0
